createdAt,value
2023-01-02T00:01:28.131Z,100026.00
2023-01-02T00:03:59.496Z,100023.00
2023-01-02T00:06:27.322Z,100034.00
2023-01-02T00:08:54.900Z,100025.00
2023-01-02T00:11:22.279Z,100030.00
2023-01-02T00:13:49.788Z,100028.00
2023-01-02T00:16:17.676Z,100030.00
2023-01-02T00:18:45.042Z,100026.00
2023-01-02T00:21:12.579Z,100018.00
2023-01-02T00:23:39.986Z,100015.00
2023-01-02T00:26:07.776Z,100007.00
2023-01-02T00:28:37.958Z,99995.00
2023-01-02T00:31:14.382Z,99996.00
2023-01-02T00:33:42.118Z,100001.00
2023-01-02T00:36:13.508Z,99983.00
2023-01-02T00:38:41.773Z,99980.00
2023-01-02T00:41:10.088Z,99982.00
2023-01-02T00:43:38.951Z,99973.00
2023-01-02T00:46:11.497Z,99964.00
2023-01-02T00:48:40.533Z,99956.00
2023-01-02T00:51:09.084Z,99951.00
2023-01-02T00:53:36.915Z,99949.00
2023-01-02T00:56:04.726Z,99950.00
2023-01-02T00:58:32.368Z,99956.00
2023-01-02T01:00:59.990Z,99952.00
2023-01-02T01:03:27.667Z,99950.00
2023-01-02T01:05:56.307Z,99951.00
2023-01-02T01:08:24.084Z,99951.00
2023-01-02T01:10:51.972Z,99946.00
2023-01-02T01:13:19.376Z,99938.00
2023-01-02T01:15:47.516Z,99932.00
2023-01-02T01:18:15.122Z,99937.00
2023-01-02T01:20:42.665Z,99934.00
2023-01-02T01:23:10.210Z,99930.00
2023-01-02T01:25:38.218Z,99928.00
2023-01-02T01:28:05.748Z,99923.00
2023-01-02T01:30:33.308Z,99916.00
2023-01-02T01:33:00.893Z,99912.00
2023-01-02T01:35:28.331Z,99910.00
2023-01-02T01:37:55.764Z,99904.00
2023-01-02T01:40:23.286Z,99891.00
2023-01-02T01:42:52.120Z,99884.00
2023-01-02T01:45:22.510Z,99890.00
2023-01-02T01:47:56.808Z,99891.00
2023-01-02T01:50:36.095Z,99892.00
2023-01-02T01:53:17.977Z,99900.00
2023-01-02T01:55:57.288Z,99897.00
2023-01-02T01:58:33.317Z,99903.00
2023-01-02T02:01:02.155Z,99894.00
2023-01-02T02:03:32.907Z,99887.00
2023-01-02T02:06:02.489Z,99883.00
2023-01-02T02:08:57.710Z,99877.00
2023-01-02T02:11:25.502Z,99877.00
2023-01-02T02:13:55.291Z,99876.00
2023-01-02T02:16:42.317Z,99874.00
2023-01-02T02:19:43.170Z,99874.00
2023-01-02T02:23:17.426Z,99876.00
2023-01-02T02:26:04.423Z,99871.00
2023-01-02T02:29:12.626Z,99872.00
2023-01-02T02:31:58.714Z,99867.00
2023-01-02T02:34:34.809Z,99863.00
2023-01-02T02:37:23.118Z,99861.00
2023-01-02T02:40:08.962Z,99858.00
2023-01-02T02:42:53.283Z,99855.00
2023-01-02T02:45:32.644Z,99859.00
2023-01-02T02:48:44.590Z,99858.00
2023-01-02T02:51:52.751Z,99850.00
2023-01-02T02:54:40.632Z,99855.00
2023-01-02T02:57:09.909Z,99850.00
2023-01-02T02:59:39.146Z,99842.00
2023-01-02T03:02:06.754Z,99846.00
2023-01-02T03:04:35.476Z,99850.00
2023-01-02T03:07:57.263Z,99857.00
2023-01-02T03:10:52.653Z,99860.00
2023-01-02T03:13:54.651Z,99842.00
2023-01-02T03:16:43.620Z,99843.00
2023-01-02T03:19:22.442Z,99841.00
2023-01-02T03:22:22.387Z,99832.00
2023-01-02T03:24:54.496Z,99839.00
2023-01-02T03:27:26.911Z,99829.00
2023-01-02T03:30:02.055Z,99840.00
2023-01-02T03:32:55.550Z,99844.00
2023-01-02T03:35:29.641Z,99828.00
2023-01-02T03:37:59.940Z,99837.00
2023-01-02T03:40:34.635Z,99837.00
2023-01-02T03:43:25.912Z,99845.00
2023-01-02T03:46:02.345Z,99836.00
2023-01-02T03:48:55.942Z,99835.00
2023-01-02T03:51:23.499Z,99850.00
2023-01-02T03:53:53.228Z,99836.00
2023-01-02T03:56:46.059Z,99838.00
2023-01-02T03:59:38.818Z,99842.00
2023-01-02T04:02:47.218Z,99847.00
2023-01-02T04:05:33.169Z,99846.00
2023-01-02T04:08:32.387Z,99851.00
2023-01-02T04:11:02.364Z,99846.00
2023-01-02T04:13:54.289Z,99839.00
2023-01-02T04:16:26.337Z,99836.00
2023-01-02T04:19:31.822Z,99832.00
2023-01-02T04:22:06.811Z,99840.00
2023-01-02T04:24:40.724Z,99829.00
2023-01-02T04:27:14.915Z,99844.00
2023-01-02T04:29:42.651Z,99839.00
2023-01-02T04:32:22.442Z,99846.00
2023-01-02T04:34:51.550Z,99851.00
2023-01-02T04:37:34.305Z,99855.00
2023-01-02T04:40:11.506Z,99859.00
2023-01-02T04:42:39.006Z,99848.00
2023-01-02T04:45:07.128Z,99847.00
2023-01-02T04:47:34.856Z,99850.00
2023-01-02T04:50:03.203Z,99856.00
2023-01-02T04:52:35.092Z,99853.00
2023-01-02T04:55:09.875Z,99847.00
2023-01-02T04:57:38.478Z,99851.00
2023-01-02T05:00:08.068Z,99848.00
2023-01-02T05:02:40.477Z,99853.00
2023-01-02T05:05:09.221Z,99858.00
2023-01-02T05:07:37.817Z,99859.00
2023-01-02T05:10:09.105Z,99861.00
2023-01-02T05:12:39.298Z,99869.00
2023-01-02T05:15:09.512Z,99866.00
2023-01-02T05:17:42.501Z,99875.00
2023-01-02T05:20:13.138Z,99880.00
2023-01-02T05:23:01.029Z,99872.00
2023-01-02T05:25:33.454Z,99877.00
2023-01-02T05:28:02.683Z,99879.00
2023-01-02T05:30:30.580Z,99884.00
2023-01-02T05:32:58.382Z,99886.00
2023-01-02T05:35:32.152Z,99880.00
2023-01-02T05:38:00.547Z,99886.00
2023-01-02T05:40:28.054Z,99885.00
2023-01-02T05:42:55.501Z,99888.00
2023-01-02T05:45:23.384Z,99897.00
2023-01-02T05:47:51.018Z,99893.00
2023-01-02T05:50:18.582Z,99892.00
2023-01-02T05:52:46.248Z,99896.00
2023-01-02T05:55:14.223Z,99892.00
2023-01-02T05:57:42.691Z,99891.00
2023-01-02T06:00:11.109Z,99884.00
2023-01-02T06:02:47.531Z,99886.00
2023-01-02T06:05:16.204Z,99880.00
2023-01-02T06:07:43.890Z,99895.00
2023-01-02T06:10:11.814Z,99887.00
2023-01-02T06:12:39.588Z,99884.00
2023-01-02T06:15:08.159Z,99888.00
2023-01-02T06:17:35.733Z,99875.00
2023-01-02T06:20:03.140Z,99875.00
2023-01-02T06:22:31.099Z,99869.00
2023-01-02T06:24:58.541Z,99874.00
2023-01-02T06:27:26.103Z,99876.00
2023-01-02T06:29:53.597Z,99879.00
2023-01-02T06:32:20.927Z,99880.00
2023-01-02T06:34:48.719Z,99876.00
2023-01-02T06:37:16.097Z,99876.00
2023-01-02T06:39:43.746Z,99882.00
2023-01-02T06:42:11.288Z,99878.00
2023-01-02T06:44:38.837Z,99879.00
2023-01-02T06:47:07.093Z,99876.00
2023-01-02T06:49:34.844Z,99882.00
2023-01-02T06:52:02.540Z,99888.00
2023-01-02T06:54:29.954Z,99882.00
2023-01-02T06:56:57.587Z,99887.00
2023-01-02T06:59:25.146Z,99888.00
2023-01-02T07:01:53.243Z,99892.00
2023-01-02T07:04:21.026Z,99889.00
2023-01-02T07:06:48.651Z,99886.00
2023-01-02T07:09:16.480Z,99888.00
2023-01-02T07:11:43.994Z,99889.00
2023-01-02T07:14:11.407Z,99881.00
2023-01-02T07:16:39.035Z,99885.00
2023-01-02T07:19:06.559Z,99883.00
2023-01-02T07:21:34.013Z,99891.00
2023-01-02T07:24:01.385Z,99893.00
2023-01-02T07:26:28.977Z,99890.00
2023-01-02T07:28:56.570Z,99887.00
2023-01-02T07:31:24.251Z,99891.00
2023-01-02T07:33:51.877Z,99879.00
2023-01-02T07:36:22.628Z,99875.00
2023-01-02T07:38:54.949Z,99889.00
2023-01-02T07:41:26.022Z,99892.00
2023-01-02T07:43:58.520Z,99889.00
2023-01-02T07:46:26.209Z,99892.00
2023-01-02T07:48:53.800Z,99906.00
2023-01-02T07:51:27.043Z,99906.00
2023-01-02T07:53:56.832Z,99904.00
2023-01-02T07:56:25.890Z,99911.00
2023-01-02T07:58:53.788Z,99902.00
2023-01-02T08:01:21.504Z,99887.00
2023-01-02T08:03:49.173Z,99894.00
2023-01-02T08:06:19.266Z,99895.00
2023-01-02T08:08:47.400Z,99909.00
2023-01-02T08:11:21.311Z,99898.00
2023-01-02T08:13:49.503Z,99906.00
2023-01-02T08:16:20.168Z,99911.00
2023-01-02T08:18:48.386Z,99905.00
2023-01-02T08:21:15.925Z,99901.00
2023-01-02T08:23:43.492Z,99899.00
2023-01-02T08:26:11.739Z,99907.00
2023-01-02T08:28:41.539Z,99904.00
2023-01-02T08:31:17.226Z,99905.00
2023-01-02T08:33:45.159Z,99909.00
2023-01-02T08:36:15.002Z,99894.00
2023-01-02T08:38:43.306Z,99899.00
2023-01-02T08:41:10.984Z,99893.00
2023-01-02T08:43:38.978Z,99902.00
2023-01-02T08:46:09.820Z,99910.00
2023-01-02T08:48:40.201Z,99905.00
2023-01-02T08:51:07.827Z,99901.00
2023-01-02T08:53:35.224Z,99920.00
2023-01-02T08:56:29.779Z,99918.00
2023-01-02T08:59:16.188Z,99916.00
2023-01-02T09:01:44.624Z,99904.00
2023-01-02T09:04:13.473Z,99917.00
2023-01-02T09:06:43.639Z,99913.00
2023-01-02T09:09:13.529Z,99917.00
2023-01-02T09:11:50.904Z,99920.00
2023-01-02T09:14:21.742Z,99932.00
2023-01-02T09:16:50.980Z,99926.00
2023-01-02T09:19:18.933Z,99927.00
2023-01-02T09:21:46.536Z,99928.00
2023-01-02T09:24:14.147Z,99938.00
2023-01-02T09:26:44.459Z,99946.00
2023-01-02T09:29:13.231Z,99943.00
2023-01-02T09:31:41.685Z,99943.00
2023-01-02T09:34:09.259Z,99937.00
2023-01-02T09:36:37.078Z,99940.00
2023-01-02T09:39:05.885Z,99933.00
2023-01-02T09:41:42.340Z,99938.00
2023-01-02T09:44:34.132Z,99942.00
2023-01-02T09:47:13.883Z,99948.00
2023-01-02T09:49:51.412Z,99945.00
2023-01-02T09:52:42.844Z,99946.00
2023-01-02T09:55:29.585Z,99942.00
2023-01-02T09:58:54.655Z,99942.00
2023-01-02T10:01:55.266Z,99955.00
2023-01-02T10:04:30.121Z,99945.00
2023-01-02T10:07:37.192Z,99957.00
2023-01-02T10:10:44.851Z,99944.00
2023-01-02T10:14:18.009Z,99944.00
2023-01-02T10:16:44.221Z,99942.00
2023-01-02T10:19:28.584Z,99948.00
2023-01-02T10:22:00.286Z,99937.00
2023-01-02T10:24:40.937Z,99947.00
2023-01-02T10:27:26.289Z,99939.00
2023-01-02T10:30:05.069Z,99944.00
2023-01-02T10:32:38.234Z,99943.00
2023-01-02T10:35:08.326Z,99936.00
2023-01-02T10:37:37.016Z,99937.00
2023-01-02T10:40:05.486Z,99936.00
2023-01-02T10:42:34.262Z,99923.00
2023-01-02T10:45:02.200Z,99927.00
2023-01-02T10:47:40.344Z,99929.00
2023-01-02T10:50:21.450Z,99920.00
2023-01-02T10:52:55.004Z,99926.00
2023-01-02T10:55:41.487Z,99926.00
2023-01-02T10:58:24.234Z,99927.00
2023-01-02T11:01:08.432Z,99943.00
2023-01-02T11:03:36.130Z,99934.00
2023-01-02T11:06:26.245Z,99922.00
2023-01-02T11:09:05.047Z,99933.00
2023-01-02T11:11:33.700Z,99930.00
2023-01-02T11:14:09.077Z,99936.00
2023-01-02T11:16:42.221Z,99935.00
2023-01-02T11:19:29.189Z,99929.00
2023-01-02T11:21:57.614Z,99933.00
2023-01-02T11:24:28.626Z,99948.00
2023-01-02T11:26:57.211Z,99941.00
2023-01-02T11:29:37.219Z,99953.00
2023-01-02T11:32:07.844Z,99942.00
2023-01-02T11:34:40.172Z,99943.00
2023-01-02T11:37:14.157Z,99948.00
2023-01-02T11:39:42.659Z,99957.00
2023-01-02T11:42:28.863Z,99963.00
2023-01-02T11:45:17.084Z,99965.00
2023-01-02T11:47:56.323Z,99955.00
2023-01-02T11:50:30.970Z,99968.00
2023-01-02T11:53:15.810Z,99984.00
2023-01-02T11:55:56.345Z,99987.00
2023-01-02T11:58:50.938Z,99992.00
2023-01-02T12:01:50.780Z,100006.00
2023-01-02T12:04:18.547Z,100009.00
2023-01-02T12:07:05.562Z,100022.00
2023-01-02T12:10:08.436Z,100030.00
2023-01-02T12:13:20.369Z,100046.00
2023-01-02T12:16:12.899Z,100053.00
2023-01-02T12:18:51.593Z,100064.00
2023-01-02T12:21:52.575Z,100059.00
2023-01-02T12:24:40.756Z,100079.00
2023-01-02T12:27:47.182Z,100074.00
2023-01-02T12:30:21.198Z,100077.00
2023-01-02T12:33:38.127Z,100084.00
2023-01-02T12:36:20.342Z,100084.00
2023-01-02T12:39:22.998Z,100087.00
2023-01-02T12:42:08.355Z,100089.00
2023-01-02T12:44:51.488Z,100080.00
2023-01-02T12:47:39.379Z,100084.00
2023-01-02T12:51:04.772Z,100085.00
2023-01-02T12:54:19.730Z,100086.00
2023-01-02T12:56:45.950Z,100083.00
2023-01-02T12:59:35.306Z,100093.00
2023-01-02T13:02:45.724Z,100088.00
2023-01-02T13:05:18.942Z,100097.00
2023-01-02T13:08:04.015Z,100089.00
2023-01-02T13:10:31.635Z,100092.00
2023-01-02T13:13:01.078Z,100098.00
2023-01-02T13:15:35.287Z,100100.00
2023-01-02T13:18:24.298Z,100109.00
2023-01-02T13:21:09.554Z,100113.00
2023-01-02T13:23:44.118Z,100114.00
2023-01-02T13:26:17.693Z,100114.00
2023-01-02T13:29:16.784Z,100121.00
2023-01-02T13:31:54.221Z,100117.00
2023-01-02T13:34:28.783Z,100119.00
2023-01-02T13:37:14.242Z,100132.00
2023-01-02T13:39:47.961Z,100126.00
2023-01-02T13:42:52.810Z,100132.00
2023-01-02T13:45:50.869Z,100132.00
2023-01-02T13:48:30.676Z,100142.00
2023-01-02T13:51:07.001Z,100136.00
2023-01-02T13:53:46.802Z,100144.00
2023-01-02T13:56:28.685Z,100151.00
2023-01-02T13:59:01.839Z,100161.00
2023-01-02T14:01:41.876Z,100160.00
2023-01-02T14:04:20.249Z,100164.00
2023-01-02T14:06:53.587Z,100176.00
2023-01-02T14:09:24.357Z,100173.00
2023-01-02T14:12:02.347Z,100181.00
2023-01-02T14:14:48.230Z,100185.00
2023-01-02T14:17:40.571Z,100195.00
2023-01-02T14:20:26.991Z,100205.00
2023-01-02T14:23:02.147Z,100204.00
2023-01-02T14:25:32.599Z,100213.00
2023-01-02T14:28:06.201Z,100208.00
2023-01-02T14:30:43.391Z,100205.00
2023-01-02T14:33:36.731Z,100207.00
2023-01-02T14:36:10.298Z,100213.00
2023-01-02T14:38:43.722Z,100219.00
2023-01-02T14:42:13.832Z,100218.00
2023-01-02T14:44:55.045Z,100232.00
2023-01-02T14:47:40.465Z,100238.00
2023-01-02T14:50:26.674Z,100247.00
2023-01-02T14:53:26.383Z,100237.00
2023-01-02T14:56:00.090Z,100248.00
2023-01-02T14:58:36.398Z,100247.00
2023-01-02T15:01:05.518Z,100250.00
2023-01-02T15:03:53.396Z,100261.00
2023-01-02T15:06:43.671Z,100260.00
2023-01-02T15:09:25.840Z,100264.00
2023-01-02T15:12:18.154Z,100274.00
2023-01-02T15:14:48.508Z,100274.00
2023-01-02T15:17:21.191Z,100283.00
2023-01-02T15:19:49.035Z,100280.00
2023-01-02T15:22:23.371Z,100274.00
2023-01-02T15:24:54.083Z,100285.00
2023-01-02T15:27:25.075Z,100282.00
2023-01-02T15:30:03.179Z,100284.00
2023-01-02T15:32:37.115Z,100287.00
2023-01-02T15:35:23.452Z,100289.00
2023-01-02T15:37:51.694Z,100290.00
2023-01-02T15:40:34.544Z,100306.00
2023-01-02T15:43:31.413Z,100313.00
2023-01-02T15:45:59.285Z,100303.00
2023-01-02T15:48:28.892Z,100309.00
2023-01-02T15:50:59.330Z,100306.00
2023-01-02T15:53:42.985Z,100307.00
2023-01-02T15:56:35.557Z,100305.00
2023-01-02T15:59:04.424Z,100320.00
2023-01-02T16:01:32.102Z,100319.00
2023-01-02T16:04:30.756Z,100333.00
2023-01-02T16:07:01.542Z,100345.00
2023-01-02T16:09:34.049Z,100334.00
2023-01-02T16:12:03.807Z,100331.00
2023-01-02T16:14:41.878Z,100335.00
2023-01-02T16:17:30.484Z,100348.00
2023-01-02T16:20:01.437Z,100348.00
2023-01-02T16:22:45.926Z,100347.00
2023-01-02T16:25:24.180Z,100349.00
2023-01-02T16:28:35.664Z,100344.00
2023-01-02T16:31:16.325Z,100344.00
2023-01-02T16:33:46.090Z,100356.00
2023-01-02T16:36:19.028Z,100368.00
2023-01-02T16:39:01.737Z,100377.00
2023-01-02T16:41:37.270Z,100380.00
2023-01-02T16:44:16.759Z,100389.00
2023-01-02T16:46:46.937Z,100394.00
2023-01-02T16:49:22.049Z,100400.00
2023-01-02T16:51:53.112Z,100389.00
2023-01-02T16:54:21.131Z,100393.00
2023-01-02T16:56:50.386Z,100375.00
2023-01-02T16:59:17.841Z,100381.00
2023-01-02T17:01:45.688Z,100387.00
2023-01-02T17:04:14.839Z,100386.00
2023-01-02T17:06:42.673Z,100373.00
2023-01-02T17:09:10.141Z,100372.00
2023-01-02T17:11:37.992Z,100371.00
2023-01-02T17:14:05.766Z,100380.00
2023-01-02T17:16:33.108Z,100390.00
2023-01-02T17:19:00.792Z,100403.00
2023-01-02T17:21:32.783Z,100417.00
2023-01-02T17:24:01.358Z,100420.00
2023-01-02T17:26:29.971Z,100429.00
2023-01-02T17:29:00.216Z,100429.00
2023-01-02T17:31:28.676Z,100419.00
2023-01-02T17:33:56.381Z,100430.00
2023-01-02T17:36:23.695Z,100443.00
2023-01-02T17:38:51.124Z,100425.00
2023-01-02T17:41:18.753Z,100443.00
2023-01-02T17:44:01.837Z,100443.00
2023-01-02T17:47:09.152Z,100448.00
2023-01-02T17:49:21.209Z,100453.00
2023-01-02T17:51:49.071Z,100450.00
2023-01-02T17:54:20.047Z,100463.00
2023-01-02T17:56:47.561Z,100468.00
2023-01-02T17:59:19.406Z,100474.00
2023-01-02T18:01:48.037Z,100470.00
2023-01-02T18:04:16.477Z,100474.00
2023-01-02T18:06:44.200Z,100476.00
2023-01-02T18:09:12.623Z,100473.00
2023-01-02T18:11:40.130Z,100481.00
2023-01-02T18:14:23.506Z,100487.00
2023-01-02T18:16:52.031Z,100488.00
2023-01-02T18:19:26.389Z,100490.00
2023-01-02T18:21:54.564Z,100497.00
2023-01-02T18:24:30.115Z,100492.00
2023-01-02T18:27:13.598Z,100499.00
2023-01-02T18:29:42.548Z,100496.00
2023-01-02T18:32:19.290Z,100503.00
2023-01-02T18:34:48.630Z,100515.00
2023-01-02T18:37:26.136Z,100520.00
2023-01-02T18:39:55.468Z,100519.00
2023-01-02T18:42:32.364Z,100511.00
2023-01-02T18:45:00.845Z,100519.00
2023-01-02T18:47:51.174Z,100512.00
2023-01-02T18:50:39.062Z,100521.00
2023-01-02T18:53:22.089Z,100526.00
2023-01-02T18:55:55.436Z,100537.00
2023-01-02T18:59:06.774Z,100543.00
2023-01-02T19:01:45.101Z,100544.00
2023-01-02T19:04:28.170Z,100549.00
2023-01-02T19:07:32.595Z,100554.00
2023-01-02T19:10:14.805Z,100549.00
2023-01-02T19:13:07.922Z,100559.00
2023-01-02T19:15:48.793Z,100559.00
2023-01-02T19:18:33.693Z,100569.00
2023-01-02T19:21:28.527Z,100573.00
2023-01-02T19:24:00.448Z,100570.00
2023-01-02T19:26:36.539Z,100573.00
2023-01-02T19:29:10.233Z,100587.00
2023-01-02T19:31:56.038Z,100601.00
2023-01-02T19:34:56.855Z,100601.00
2023-01-02T19:37:46.759Z,100607.00
2023-01-02T19:40:20.117Z,100599.00
2023-01-02T19:42:49.756Z,100601.00
2023-01-02T19:45:26.134Z,100612.00
2023-01-02T19:47:56.829Z,100613.00
2023-01-02T19:50:27.101Z,100615.00
2023-01-02T19:52:54.905Z,100612.00
2023-01-02T19:55:22.755Z,100618.00
2023-01-02T19:57:50.308Z,100636.00
2023-01-02T20:00:21.684Z,100635.00
2023-01-02T20:02:51.818Z,100635.00
2023-01-02T20:05:22.981Z,100639.00
2023-01-02T20:07:52.486Z,100636.00
2023-01-02T20:10:20.690Z,100648.00
2023-01-02T20:12:48.387Z,100651.00
2023-01-02T20:15:24.089Z,100644.00
2023-01-02T20:17:56.143Z,100650.00
2023-01-02T20:20:26.806Z,100653.00
2023-01-02T20:22:55.209Z,100653.00
2023-01-02T20:25:25.591Z,100655.00
2023-01-02T20:27:54.946Z,100662.00
2023-01-02T20:30:25.158Z,100657.00
2023-01-02T20:32:54.621Z,100662.00
2023-01-02T20:35:22.915Z,100671.00
2023-01-02T20:37:50.375Z,100670.00
2023-01-02T20:40:18.076Z,100677.00
2023-01-02T20:42:46.867Z,100685.00
2023-01-02T20:45:14.799Z,100684.00
2023-01-02T20:47:42.514Z,100691.00
2023-01-02T20:50:10.138Z,100700.00
2023-01-02T20:52:37.547Z,100696.00
2023-01-02T20:55:05.854Z,100703.00
2023-01-02T20:57:33.591Z,100703.00
2023-01-02T21:00:01.606Z,100705.00
2023-01-02T21:02:29.669Z,100713.00
2023-01-02T21:04:57.805Z,100714.00
2023-01-02T21:07:26.545Z,100723.00
2023-01-02T21:09:57.770Z,100725.00
2023-01-02T21:12:44.197Z,100729.00
2023-01-02T21:15:31.375Z,100728.00
2023-01-02T21:17:59.027Z,100731.00
2023-01-02T21:20:26.671Z,100732.00
2023-01-02T21:22:54.324Z,100742.00
2023-01-02T21:25:21.827Z,100742.00
2023-01-02T21:27:49.298Z,100746.00
2023-01-02T21:30:17.009Z,100746.00
2023-01-02T21:32:45.484Z,100745.00
2023-01-02T21:35:13.411Z,100751.00
2023-01-02T21:37:40.841Z,100745.00
2023-01-02T21:40:08.986Z,100752.00
2023-01-02T21:42:44.373Z,100756.00
2023-01-02T21:45:12.508Z,100755.00
2023-01-02T21:47:40.540Z,100766.00
2023-01-02T21:50:08.959Z,100765.00
2023-01-02T21:52:37.465Z,100766.00
2023-01-02T21:55:08.017Z,100758.00
2023-01-02T21:58:11.841Z,100767.00
2023-01-02T22:00:27.979Z,100776.00
2023-01-02T22:02:56.372Z,100785.00
2023-01-02T22:05:24.343Z,100788.00
2023-01-02T22:07:51.860Z,100795.00
2023-01-02T22:10:19.630Z,100800.00
2023-01-02T22:12:47.296Z,100803.00
2023-01-02T22:15:14.867Z,100809.00
2023-01-02T22:17:42.634Z,100816.00
2023-01-02T22:20:11.302Z,100812.00
2023-01-02T22:22:39.050Z,100818.00
2023-01-02T22:25:07.480Z,100830.00
2023-01-02T22:27:34.979Z,100844.00
2023-01-02T22:30:23.300Z,100847.00
2023-01-02T22:32:51.525Z,100852.00
2023-01-02T22:35:19.195Z,100855.00
2023-01-02T22:37:46.851Z,100858.00
2023-01-02T22:40:14.378Z,100854.00
2023-01-02T22:43:03.432Z,100858.00
2023-01-02T22:45:42.220Z,100858.00
2023-01-02T22:48:21.205Z,100875.00
2023-01-02T22:50:51.487Z,100879.00
2023-01-02T22:53:32.771Z,100874.00
2023-01-02T22:56:12.013Z,100875.00
2023-01-02T22:58:39.512Z,100889.00
2023-01-02T23:01:32.991Z,100885.00
2023-01-02T23:04:01.258Z,100882.00
2023-01-02T23:06:29.789Z,100884.00
2023-01-02T23:08:57.193Z,100897.00
2023-01-02T23:11:24.864Z,100891.00
2023-01-02T23:13:56.576Z,100893.00
2023-01-02T23:17:01.250Z,100892.00
2023-01-02T23:19:28.840Z,100898.00
2023-01-02T23:21:59.601Z,100897.00
2023-01-02T23:24:37.292Z,100902.00
2023-01-02T23:27:09.015Z,100900.00
2023-01-02T23:29:37.524Z,100898.00
2023-01-02T23:32:06.420Z,100904.00
2023-01-02T23:34:33.926Z,100908.00
2023-01-02T23:37:03.724Z,100903.00
2023-01-02T23:39:33.113Z,100902.00
2023-01-02T23:42:01.032Z,100908.00
2023-01-02T23:44:28.633Z,100909.00
2023-01-02T23:46:58.089Z,100910.00
2023-01-02T23:49:25.713Z,100918.00
2023-01-02T23:51:53.995Z,100913.00
2023-01-02T23:54:22.429Z,100928.00
2023-01-02T23:56:51.616Z,100932.00
2023-01-02T23:59:23.124Z,100943.00
